METAR Data
IDs: Format: Raw Decoded Include TAF

Data at: 0514 UTC 24 Sep 2018

KCPW 240447Z AUTO 23006G17KT 10SM CLR 06/M03 A3050 RMK AO2
KCPW 240430Z AUTO 22007KT 10SM CLR 06/M03 A3050 RMK AO2
KCPW 240412Z AUTO 22006KT 10SM CLR 06/M03 A3050 RMK AO2
KCPW 240348Z AUTO 22008KT 10SM CLR 06/M03 A3050 RMK AO2
KCPW 240330Z AUTO 23010G16KT 10SM CLR 06/M03 A3050 RMK AO2
KCPW 240312Z AUTO 22010G14KT 10SM CLR 06/M04 A3050 RMK AO2
KCPW 240247Z AUTO 21013G18KT 10SM CLR 06/M04 A3050 RMK AO2
KCPW 240230Z AUTO 20014G19KT 10SM CLR 07/M04 A3050 RMK AO2
KCPW 240212Z AUTO 21014G21KT 10SM CLR 07/M04 A3049 RMK AO2
KCPW 240148Z AUTO 20015G21KT 10SM CLR 07/M05 A3049 RMK AO2
KCPW 240130Z AUTO 20015G22KT 10SM CLR 08/M05 A3049 RMK AO2
KCPW 240112Z AUTO 20015G22KT 10SM CLR 08/M05 A3049 RMK AO2
KCPW 240048Z AUTO 21014G20KT 10SM CLR 09/M05 A3050 RMK AO2
KCPW 240030Z AUTO 20014G22KT 10SM SCT070 10/M05 A3050 RMK AO2
KCPW 240012Z AUTO 20017G23KT 10SM CLR 11/M05 A3050 RMK AO2
KCPW 232348Z AUTO 20011G21KT 180V240 10SM CLR 12/M05 A3050 RMK AO2
KCPW 232330Z AUTO 19014G20KT 10SM CLR 12/M05 A3050 RMK AO2
KCPW 232312Z AUTO 19015G23KT 10SM CLR 12/M05 A3050 RMK AO2
KCPW 232248Z AUTO 18011G21KT 10SM CLR 13/M05 A3051 RMK AO2
KCPW 232230Z AUTO 19015G24KT 10SM CLR 12/M05 A3051 RMK AO2
KCPW 232212Z AUTO 21009G20KT 140V270 10SM CLR 12/M04 A3052 RMK AO2
KCPW 232147Z AUTO 17012G23KT 10SM CLR 12/M03 A3052 RMK AO2
KCPW 232130Z AUTO 22011G23KT 10SM SCT065 12/M03 A3052 RMK AO2
KCPW 232112Z AUTO 19008G18KT 10SM CLR 12/M03 A3053 RMK AO2
KCPW 232047Z AUTO 18009G22KT 10SM CLR 11/M03 A3054 RMK AO2
KCPW 232029Z AUTO 20010G21KT 170V230 10SM CLR 12/M03 A3054 RMK AO2
KCPW 232011Z AUTO 20012G20KT 160V230 10SM CLR 12/M02 A3055 RMK AO2
KCPW 231948Z AUTO 21009G16KT 170V250 10SM CLR 12/M03 A3057 RMK AO2
KCPW 231930Z AUTO 21011G16KT 180V240 10SM CLR 12/M02 A3058 RMK AO2
KCPW 231912Z AUTO 22006G17KT 10SM CLR 11/M02 A3059 RMK AO2
KCPW 231847Z AUTO 19010G19KT 10SM SCT049 11/M02 A3060 RMK AO2
KCPW 231829Z AUTO 19010G17KT 10SM SCT049 11/M02 A3060 RMK AO2
KCPW 231812Z AUTO 21011G19KT 180V240 10SM SCT049 11/M02 A3061 RMK AO2
KCPW 231747Z AUTO 20013G20KT 10SM CLR 10/M03 A3061 RMK AO2
KCPW 231730Z AUTO 20011G19KT 10SM CLR 10/M03 A3062 RMK AO2
KCPW 231712Z AUTO 22009G19KT 180V250 10SM CLR 09/M03 A3062 RMK AO2
KCPW 231648Z AUTO 23008G18KT 200V260 10SM CLR 09/M03 A3062 RMK AO2
KCPW 231630Z AUTO 21006G14KT 10SM CLR 08/M03 A3063 RMK AO2
KCPW 231612Z AUTO 21007KT 180V250 10SM CLR 07/M03 A3063 RMK AO2
KCPW 231547Z AUTO 21007KT 10SM CLR 07/M03 A3063 RMK AO2
KCPW 231530Z AUTO 23004KT 10SM CLR 07/M04 A3062 RMK AO2
KCPW 231512Z AUTO 25006KT 10SM CLR 07/M04 A3062 RMK AO2
KCPW 231447Z AUTO 20005KT 10SM CLR 06/M05 A3062 RMK AO2
KCPW 231429Z AUTO 22006KT 10SM CLR 06/M05 A3062 RMK AO2
KCPW 231412Z AUTO 21006KT 10SM CLR 05/M04 A3061 RMK AO2
KCPW 231348Z AUTO 21006KT 10SM CLR 05/M04 A3061 RMK AO2
KCPW 231330Z AUTO 22005KT 10SM CLR 04/M04 A3061 RMK AO2
KCPW 231312Z AUTO 21007KT 10SM CLR 03/M06 A3060 RMK AO2
KCPW 231248Z AUTO 22005KT 10SM CLR 04/M06 A3060 RMK AO2
KCPW 231230Z AUTO 22005KT 10SM CLR 04/M06 A3060 RMK AO2
KCPW 231212Z AUTO 21004KT 10SM CLR 05/M06 A3060 RMK AO2
KCPW 231147Z AUTO 25005KT 10SM CLR 05/M06 A3060 RMK AO2
KCPW 231129Z AUTO 25006KT 10SM CLR 05/M06 A3060 RMK AO2
KCPW 231112Z AUTO 24006KT 10SM CLR 05/M06 A3060 RMK AO2
KCPW 231048Z AUTO 24006KT 10SM CLR 05/M06 A3060 RMK AO2
KCPW 231030Z AUTO 23007KT 10SM CLR 05/M06 A3060 RMK AO2
KCPW 231012Z AUTO 22006KT 10SM CLR 05/M06 A3060 RMK AO2
KCPW 230948Z AUTO 22006KT 10SM CLR 05/M06 A3060 RMK AO2
KCPW 230930Z AUTO 22006KT 10SM CLR 05/M06 A3060 RMK AO2
KCPW 230912Z AUTO 22007KT 10SM CLR 05/M06 A3060 RMK AO2
KCPW 230848Z AUTO 22007KT 10SM CLR 05/M05 A3061 RMK AO2
KCPW 230830Z AUTO 21007KT 10SM CLR 05/M05 A3061 RMK AO2
KCPW 230812Z AUTO 21008KT 10SM CLR 05/M05 A3061 RMK AO2
KCPW 230747Z AUTO 21010KT 10SM CLR 05/M05 A3061 RMK AO2
KCPW 230730Z AUTO 21008KT 10SM CLR 05/M05 A3062 RMK AO2
KCPW 230712Z AUTO 20009KT 10SM CLR 05/M05 A3062 RMK AO2
KCPW 230648Z AUTO 21010KT 10SM CLR 05/M05 A3062 RMK AO2
KCPW 230630Z AUTO 21009KT 10SM CLR 05/M05 A3062 RMK AO2
KCPW 230612Z AUTO 21009KT 10SM CLR 05/M05 A3062 RMK AO2
KCPW 230548Z AUTO 22011KT 10SM CLR 05/M05 A3063 RMK AO2
KCPW 230530Z AUTO 22010KT 10SM CLR 05/M05 A3062 RMK AO2
KCPW 230512Z AUTO 21009KT 10SM CLR 05/M05 A3063 RMK AO2
KCPW 230448Z AUTO 21010KT 10SM CLR 05/M05 A3063 RMK AO2
KCPW 230430Z AUTO 21009KT 10SM CLR 05/M04 A3063 RMK AO2
KCPW 230412Z AUTO 20011KT 10SM CLR 05/M04 A3064 RMK AO2
KCPW 230347Z AUTO 22009KT 10SM CLR 05/M03 A3064 RMK AO2
KCPW 230330Z AUTO 21010G18KT 10SM CLR 06/M03 A3064 RMK AO2
KCPW 230312Z AUTO 21013G19KT 10SM CLR 06/M03 A3063 RMK AO2
KCPW 230248Z AUTO 20013G20KT 10SM CLR 06/M03 A3063 RMK AO2
KCPW 230230Z AUTO 20013G21KT 10SM CLR 06/M03 A3062 RMK AO2
KCPW 230212Z AUTO 20013G19KT 10SM CLR 07/M03 A3062 RMK AO2
KCPW 230148Z AUTO 20013G17KT 10SM CLR 07/M03 A3062 RMK AO2
KCPW 230130Z AUTO 19012G18KT 10SM CLR 07/M03 A3062 RMK AO2
KCPW 230112Z AUTO 19011G18KT 10SM CLR 08/M03 A3062 RMK AO2
KCPW 230048Z AUTO 20012G19KT 10SM CLR 09/M04 A3062 RMK AO2
KCPW 230030Z AUTO 20012G20KT 10SM CLR 10/M04 A3062 RMK AO2
KCPW 230012Z AUTO 20011G18KT 10SM CLR 11/M04 A3063 RMK AO2
KCPW 222348Z AUTO 19012G19KT 10SM CLR 11/M03 A3063 RMK AO2
KCPW 222331Z AUTO 20012G19KT 10SM CLR 11/M03 A3063 RMK AO2
KCPW 222309Z AUTO 19011G17KT 10SM SCT075 12/M03 A3063 RMK AO2
KCPW 222250Z AUTO 20008G16KT 170V230 10SM SCT075 13/M02 A3063 RMK AO2
KCPW 222230Z AUTO 20009G16KT 10SM SCT080 12/M02 A3064 RMK AO2
KCPW 222212Z AUTO 22009G15KT 190V250 10SM SCT075 13/M02 A3064 RMK AO2
KCPW 222147Z AUTO 23007G17KT 10SM BKN090 13/M02 A3065 RMK AO2
KCPW 222130Z AUTO 22009G16KT 180V250 10SM BKN090 14/M01 A3065 RMK AO2
KCPW 222112Z AUTO 23007G16KT 200V260 10SM SCT090 12/M02 A3065 RMK AO2
KCPW 222048Z AUTO 20012G16KT 10SM CLR 12/M02 A3066 RMK AO2
KCPW 222030Z AUTO 20007G19KT 160V240 10SM CLR 12/M02 A3067 RMK AO2
KCPW 222012Z AUTO 20007G19KT 140V260 10SM CLR 12/M02 A3067 RMK AO2
KCPW 221948Z AUTO 18013G20KT 10SM CLR 11/M02 A3068 RMK AO2
KCPW 221930Z AUTO 21012G22KT 10SM CLR 11/M01 A3070 RMK AO2
KCPW 221912Z AUTO 20010G17KT 10SM SCT044 11/M01 A3070 RMK AO2
KCPW 221847Z AUTO 16008KT 10SM SCT044 12/00 A3070 RMK AO2
KCPW 221829Z AUTO 19007G14KT 10SM CLR 10/M01 A3071 RMK AO2
KCPW 221811Z AUTO 26006KT 10SM SCT046 10/M01 A3072 RMK AO2
KCPW 221748Z AUTO 25006KT 10SM SCT046 10/00 A3072 RMK AO2
KCPW 221730Z AUTO 18008G18KT 10SM CLR 10/M02 A3072 RMK AO2